sensor_id;sensor_type;location;lat;lon;timestamp;pressure;altitude;pressure_sealevel;temperature;humidity
15558;BME280;7880;50.110;9.372;2022-07-29T00:00:33;19.775764770270325;;;19.562;44.042989270746126
15558;BME280;7880;50.110;9.372;2022-07-29T00:05:28;19.71020792564959;;;19.5;44.296827332499824
15558;BME280;7880;50.110;9.372;2022-07-29T00:10:32;19.730379257217283;;;19.5;44.84459664395783
15558;BME280;7880;50.110;9.372;2022-07-29T00:15:34;19.740464924747357;;;19.5;44.28643785828575
15558;BME280;7880;50.110;9.372;2022-07-29T00:20:37;19.740464924747357;;;19.5;44.367752594233345
15558;BME280;7880;50.110;9.372;2022-07-29T00:25:40;19.720293590851362;;;19.5;44.68725223762452
15558;BME280;7880;50.110;9.372;2022-07-29T00:30:44;19.7354220908368;;;19.5;44.81757770989211
15558;BME280;7880;50.110;9.372;2022-07-29T00:35:46;19.700122261611977;;;19.5;44.464708846655576
15558;BME280;7880;50.110;9.372;2022-07-29T00:40:48;19.644651130214335;;;19.437;44.76734033250557
15558;BME280;7880;50.110;9.372;2022-07-29T00:45:51;19.57909438396455;;;19.437;44.79337838651013
15558;BME280;7880;50.110;9.372;2022-07-29T00:50:56;19.50345204556361;;;19.312;45.06842910004994
15558;BME280;7880;50.110;9.372;2022-07-29T00:55:59;19.488323585741455;;;19.25;45.3389996374994
15558;BME280;7880;50.110;9.372;2022-07-29T01:01:03;19.53370897306595;;;19.312;45.64853505995706
15558;BME280;7880;50.110;9.372;2022-07-29T01:06:06;19.53370897306595;;;19.312;46.255111345421255
15558;BME280;7880;50.110;9.372;2022-07-29T01:11:10;19.574051559367216;;;19.312;45.96884301957482
15558;BME280;7880;50.110;9.372;2022-07-29T01:16:21;19.614394164294936;;;19.375;46.73870286223573
15558;BME280;7880;50.110;9.372;2022-07-29T01:21:51;19.548837440746137;;;19.312;45.89795989071932
15558;BME280;7880;50.110;9.372;2022-07-29T01:26:37;19.528666151087965;;;19.312;46.931860274608496
15558;BME280;7880;50.110;9.372;2022-07-29T01:31:43;19.46815231005312;;;19.25;47.44483247397016
15558;BME280;7880;50.110;9.372;2022-07-29T01:36:43;19.46815231005312;;;19.25;48.98709618572525
15558;BME280;7880;50.110;9.372;2022-07-29T01:41:49;19.427809772646288;;;19.187;48.48291829073169
15558;BME280;7880;50.110;9.372;2022-07-29T01:46:49;19.372338814125396;;;19.125;49.49845668113896
15558;BME280;7880;50.110;9.372;2022-07-29T01:51:56;19.31686789082014;;;19.0;49.94576371697092
15558;BME280;7880;50.110;9.372;2022-07-29T01:56:58;19.331996320956385;;;19.0;49.345952563133146
15558;BME280;7880;50.110;9.372;2022-07-29T02:02:02;19.326953510619933;;;19.0;50.146096900861856
15558;BME280;7880;50.110;9.372;2022-07-29T02:07:06;19.19079774154816;;;18.875;48.82856867449451
15558;BME280;7880;50.110;9.372;2022-07-29T02:12:09;19.15045533219818;;;18.875;48.146244710462916
15558;BME280;7880;50.110;9.372;2022-07-29T02:17:13;19.15045533219818;;;18.812;49.88166274728639
15558;BME280;7880;50.110;9.372;2022-07-29T02:22:23;19.03447100907215;;;18.687;49.94327412751558
15558;BME280;7880;50.110;9.372;2022-07-29T02:27:24;19.039513802528383;;;18.687;51.33721880624676
15558;BME280;7880;50.110;9.372;2022-07-29T02:32:26;18.938657988701017;;;18.562;52.32212978633837
15558;BME280;7880;50.110;9.372;2022-07-29T02:37:37;18.620962936064462;;;18.312;52.27372668330619
15558;BME280;7880;50.110;9.372;2022-07-29T02:42:34;18.610877397755395;;;18.187;51.03242943480004
15558;BME280;7880;50.110;9.372;2022-07-29T02:47:43;18.600791860610478;;;18.187;52.38093710131851
15558;BME280;7880;50.110;9.372;2022-07-29T02:52:43;18.45959446281777;;;18.0;54.09593464972019
15558;BME280;7880;50.110;9.372;2022-07-29T02:57:48;18.081388271437028;;;17.75;55.37384797638125
15558;BME280;7880;50.110;9.372;2022-07-29T03:02:51;17.894807153387227;;;17.5;56.512159611322815
15558;BME280;7880;50.110;9.372;2022-07-29T03:07:55;17.88976442599669;;;17.312;56.49580398507738
15558;BME280;7880;50.110;9.372;2022-07-29T03:12:56;17.70318371714675;;;17.312;55.89084358048111
15558;BME280;7880;50.110;9.372;2022-07-29T03:18:05;17.743525458272778;;;17.187;55.903297023825104
15558;BME280;7880;50.110;9.372;2022-07-29T03:23:03;17.829251720011236;;;17.25;56.805101532737815
15558;BME280;7880;50.110;9.372;2022-07-29T03:28:05;17.511560701165582;;;17.0;58.93456425072428
15558;BME280;7880;50.110;9.372;2022-07-29T03:33:08;17.516603406728244;;;16.875;58.18285689311184
15558;BME280;7880;50.110;9.372;2022-07-29T03:38:17;17.430877451744163;;;16.812;58.12508900567953
15558;BME280;7880;50.110;9.372;2022-07-29T03:43:18;17.380450458690756;;;16.687;58.96034217370101
15558;BME280;7880;50.110;9.372;2022-07-29T03:48:23;17.370365063572535;;;16.687;59.52887833355528
15558;BME280;7880;50.110;9.372;2022-07-29T03:53:25;16.845926121628146;;;16.375;61.51764540401334
15558;BME280;7880;50.110;9.372;2022-07-29T03:56:48;17.2039562121965;;;16.562;60.18039781714059
15558;BME280;7880;50.110;9.372;2022-07-29T04:01:49;17.08293179208413;;;16.437;60.10437572257303
15558;BME280;7880;50.110;9.372;2022-07-29T04:06:56;16.770286149368623;;;16.187;61.27773749664493
15558;BME280;7880;50.110;9.372;2022-07-29T04:12:05;17.133358613424935;;;16.5;59.65102567626161
15558;BME280;7880;50.110;9.372;2022-07-29T04:17:04;16.987120911717646;;;16.375;61.35927847774759
15558;BME280;7880;50.110;9.372;2022-07-29T04:22:07;17.093017154023983;;;16.437;60.421329258713484
15558;BME280;7880;50.110;9.372;2022-07-29T04:27:09;17.072846431308427;;;16.562;60.89751631227917
15558;BME280;7880;50.110;9.372;2022-07-29T04:32:28;16.845926121628146;;;16.375;62.776589248317265
15558;BME280;7880;50.110;9.372;2022-07-29T04:37:16;16.845926121628146;;;16.437;63.4299832007285
15558;BME280;7880;50.110;9.372;2022-07-29T04:42:19;16.825755455956095;;;16.312;63.75006194045163
15558;BME280;7880;50.110;9.372;2022-07-29T04:47:24;16.891310136415996;;;16.375;63.40590710104811
15558;BME280;7880;50.110;9.372;2022-07-29T04:52:29;16.921566159371288;;;16.437;61.75225659403278
15558;BME280;7880;50.110;9.372;2022-07-29T04:57:31;17.0072916146426;;;16.5;61.51583265544729
15558;BME280;7880;50.110;9.372;2022-07-29T05:02:38;17.087974472908535;;;16.625;61.79368884501101
15558;BME280;7880;50.110;9.372;2022-07-29T05:07:41;17.017376967851305;;;16.562;62.55076879566919
15558;BME280;7880;50.110;9.372;2022-07-29T05:12:45;16.795499466179173;;;16.437;64.02128290131951
15558;BME280;7880;50.110;9.372;2022-07-29T05:17:47;17.05771839232766;;;16.562;63.36222163590233
15558;BME280;7880;50.110;9.372;2022-07-29T05:22:50;17.108145199116553;;;16.687;63.70813600860614
15558;BME280;7880;50.110;9.372;2022-07-29T05:28:03;17.16865740568028;;;16.812;62.91859415705608
15558;BME280;7880;50.110;9.372;2022-07-29T05:33:04;17.360279669618468;;;17.0;62.45247297072416
15558;BME280;7880;50.110;9.372;2022-07-29T05:38:03;17.546859646216035;;;17.125;63.01032948027187
15558;BME280;7880;50.110;9.372;2022-07-29T05:43:04;17.622500290774042;;;17.25;64.6132169109909
15558;BME280;7880;50.110;9.372;2022-07-29T05:48:07;17.83429444390931;;;17.5;64.0414318118808
15558;BME280;7880;50.110;9.372;2022-07-29T05:53:10;18.04608911043615;;;17.75;62.985656355103835
15558;BME280;7880;50.110;9.372;2022-07-29T05:58:14;18.15702937874594;;;17.937;61.50374501760456
15558;BME280;7880;50.110;9.372;2022-07-29T06:03:23;18.489851028850534;;;18.25;59.92952885922974
15558;BME280;7880;50.110;9.372;2022-07-29T06:08:22;18.97395751029835;;;18.687;55.46938216385481
15558;BME280;7880;50.110;9.372;2022-07-29T06:13:27;19.377381627081196;;;19.25;51.63960237393473
15558;BME280;7880;50.110;9.372;2022-07-29T06:18:30;19.437895405251766;;;19.375;51.70638637336497
15558;BME280;7880;50.110;9.372;2022-07-29T06:23:35;19.38242444032803;;;19.375;52.472022020422905
15558;BME280;7880;50.110;9.372;2022-07-29T06:28:43;19.372338814125396;;;19.312;52.617574762464734
15558;BME280;7880;50.110;9.372;2022-07-29T06:33:44;19.30173946330324;;;19.25;54.208515343214025
15558;BME280;7880;50.110;9.372;2022-07-29T06:38:57;19.22105456078425;;;19.125;55.91110386310378
15558;BME280;7880;50.110;9.372;2022-07-29T06:43:51;19.110112941474654;;;19.0;66.711197284528
15558;BME280;7880;50.110;9.372;2022-07-29T06:48:58;18.590706324629718;;;18.375;74.6063617035831
15558;BME280;7880;50.110;9.372;2022-07-29T06:54:05;18.01583269807161;;;17.687;82.62406750235809
15558;BME280;7880;50.110;9.372;2022-07-29T06:59:06;18.096516487660118;;;17.625;85.3491191156109
15558;BME280;7880;50.110;9.372;2022-07-29T07:04:11;18.076345533278072;;;17.625;89.97993242474004
15558;BME280;7880;50.110;9.372;2022-07-29T07:09:14;18.25788429035456;;;17.812;91.77581563271657
15558;BME280;7880;50.110;9.372;2022-07-29T07:14:16;18.590706324629718;;;17.875;90.33954501095964
15558;BME280;7880;50.110;9.372;2022-07-29T07:19:19;18.74198948657722;;;18.125;89.81865477290718
15558;BME280;7880;50.110;9.372;2022-07-29T07:24:23;18.78233170733438;;;18.312;89.80739601882739
15558;BME280;7880;50.110;9.372;2022-07-29T07:29:25;18.7772889287211;;;18.312;90.86858716526169
15558;BME280;7880;50.110;9.372;2022-07-29T07:34:38;18.953786353353642;;;18.5;88.00662484275
15558;BME280;7880;50.110;9.372;2022-07-29T07:39:33;19.04455659627565;;;18.687;83.89525244835231
15558;BME280;7880;50.110;9.372;2022-07-29T07:44:37;18.953786353353642;;;18.625;78.95116086406098
15558;BME280;7880;50.110;9.372;2022-07-29T07:49:45;19.155498132348292;;;18.812;82.48863248968581
15558;BME280;7880;50.110;9.372;2022-07-29T07:54:44;19.276525423262502;;;18.875;80.5406323627787
15558;BME280;7880;50.110;9.372;2022-07-29T07:59:56;19.296696654713013;;;19.0;90.22583346863246
15558;BME280;7880;50.110;9.372;2022-07-29T08:04:51;19.831235984904925;;;19.312;83.82181159710512
15558;BME280;7880;50.110;9.372;2022-07-29T08:10:02;19.891750077396864;;;19.625;78.52859716982289
15558;BME280;7880;50.110;9.372;2022-07-29T08:14:58;20.436378795752535;;;20.062;77.42280143020699
15558;BME280;7880;50.110;9.372;2022-07-29T08:20:19;20.75912334183813;;;20.5;71.08583907949415
15558;BME280;7880;50.110;9.372;2022-07-29T08:25:14;20.87006705487729;;;20.75;76.69170479568967
15558;BME280;7880;50.110;9.372;2022-07-29T08:30:07;21.006225440674463;;;20.812;69.29693511178196
15558;BME280;7880;50.110;9.372;2022-07-29T08:35:12;21.349143796809948;;;21.187;68.77019417711885
15558;BME280;7880;50.110;9.372;2022-07-29T08:40:15;21.61137638895307;;;21.437;67.93427176767
15558;BME280;7880;50.110;9.372;2022-07-29T08:45:19;21.6567628790217;;;21.562;65.91462945141942
15558;BME280;7880;50.110;9.372;2022-07-29T08:50:23;21.61137638895307;;;21.625;59.18125141126929
15558;BME280;7880;50.110;9.372;2022-07-29T08:55:27;21.571032862016;;;21.5;56.24601808997999
15558;BME280;7880;50.110;9.372;2022-07-29T08:58:58;21.717278235784033;;;21.625;59.647081079451176
15558;BME280;7880;50.110;9.372;2022-07-29T09:04:05;22.004726752731948;;;21.875;60.479985770957775
15558;BME280;7880;50.110;9.372;2022-07-29T09:09:07;22.372863953659543;;;22.25;57.300261016533725
15558;BME280;7880;50.110;9.372;2022-07-29T09:14:12;22.5241536639689;;;22.5;58.29566715871878
15558;BME280;7880;50.110;9.372;2022-07-29T09:19:21;22.60484161656932;;;22.562;54.74923054873575
15558;BME280;7880;50.110;9.372;2022-07-29T09:24:37;22.856991948658834;;;22.812;54.883772435942454
15558;BME280;7880;50.110;9.372;2022-07-29T09:29:25;22.988110408891224;;;22.937;54.62735356724248
15558;BME280;7880;50.110;9.372;2022-07-29T09:34:28;23.28564918304328;;;23.187;52.08222531676837
15558;BME280;7880;50.110;9.372;2022-07-29T09:39:35;23.10914300834411;;;23.187;49.97790559751967
15558;BME280;7880;50.110;9.372;2022-07-29T09:44:42;23.27052006838494;;;23.187;52.665056290234446
15558;BME280;7880;50.110;9.372;2022-07-29T09:49:58;23.598318139091134;;;23.437;50.80950400261108
15558;BME280;7880;50.110;9.372;2022-07-29T09:54:46;24.077409838937456;;;23.937;51.041383794340824
15558;BME280;7880;50.110;9.372;2022-07-29T10:00:00;23.865600552974502;;;23.937;51.39033069146685
15558;BME280;7880;50.110;9.372;2022-07-29T10:04:55;24.218616314796964;;;24.062;47.97803831176598
15558;BME280;7880;50.110;9.372;2022-07-29T10:10:00;24.480857518181438;;;24.375;49.25865348195053
15558;BME280;7880;50.110;9.372;2022-07-29T10:15:03;24.26904725432978;;;24.312;47.10368954383677
15558;BME280;7880;50.110;9.372;2022-07-29T10:20:08;24.087496008217567;;;24.062;50.40237425575726
15558;BME280;7880;50.110;9.372;2022-07-29T10:25:16;23.986634367803344;;;23.875;51.68331050898514
15558;BME280;7880;50.110;9.372;2022-07-29T10:30:15;24.057237503869693;;;23.812;50.88784199612275
15558;BME280;7880;50.110;9.372;2022-07-29T10:35:25;24.82378951004357;;;24.5;51.2210489466298
15558;BME280;7880;50.110;9.372;2022-07-29T10:41:47;24.783444499975303;;;24.625;50.14726902070388
15558;BME280;7880;50.110;9.372;2022-07-29T10:46:34;25.01542856223532;;;25.062;47.56197568280662
15558;BME280;7880;50.110;9.372;2022-07-29T10:52:07;24.70779765630141;;;24.687;49.76220447457034
15558;BME280;7880;50.110;9.372;2022-07-29T10:56:48;25.33819002113887;;;25.25;48.98860825000966
15558;BME280;7880;50.110;9.372;2022-07-29T11:01:54;25.030557978991418;;;24.875;48.121264805041235
15558;BME280;7880;50.110;9.372;2022-07-29T11:07:06;25.514700698200613;;;25.312;47.81334321141083
15558;BME280;7880;50.110;9.372;2022-07-29T11:11:59;25.06585996160866;;;24.875;46.81747048994926
15558;BME280;7880;50.110;9.372;2022-07-29T11:17:05;25.116291390085827;;;25.0;47.613331842346085
15558;BME280;7880;50.110;9.372;2022-07-29T11:22:12;25.45418271161616;;;25.312;46.555697498717535
15558;BME280;7880;50.110;9.372;2022-07-29T11:27:15;25.560089215642073;;;25.312;47.70453120452298
15558;BME280;7880;50.110;9.372;2022-07-29T11:32:21;25.35836265190155;;;25.25;45.533393177889955
15558;BME280;7880;50.110;9.372;2022-07-29T11:37:23;25.832420815346996;;;25.5;46.128427984124706
15558;BME280;7880;50.110;9.372;2022-07-29T11:42:42;25.72147080191062;;;25.5;45.994795402979214
15558;BME280;7880;50.110;9.372;2022-07-29T11:47:28;25.509657531051197;;;25.312;46.392024507189795
15558;BME280;7880;50.110;9.372;2022-07-29T11:52:33;25.716427622828633;;;25.5;44.841272790967814
15558;BME280;7880;50.110;9.372;2022-07-29T11:57:46;25.827377629862166;;;25.625;45.0735657395681
15558;BME280;7880;50.110;9.372;2022-07-29T12:02:43;25.781988973595436;;;25.562;45.89142059636277
15558;BME280;7880;50.110;9.372;2022-07-29T12:07:45;25.81224807515391;;;25.687;45.44694377237705
15558;BME280;7880;50.110;9.372;2022-07-29T12:12:51;26.155185291735688;;;25.875;45.8588858009382
15558;BME280;7880;50.110;9.372;2022-07-29T12:17:52;26.11483966699452;;;26.0;43.598334131004314
15558;BME280;7880;50.110;9.372;2022-07-29T12:22:57;26.235876597097377;;;26.125;44.1662800334039
15558;BME280;7880;50.110;9.372;2022-07-29T12:28:02;26.30143833756447;;;26.125;45.388238763526346
15558;BME280;7880;50.110;9.372;2022-07-29T12:33:11;26.649420706467936;;;26.5;43.52693030889605
15558;BME280;7880;50.110;9.372;2022-07-29T12:38:09;26.740198943630094;;;26.5;44.02907944834284
15558;BME280;7880;50.110;9.372;2022-07-29T12:43:14;26.962101698113838;;;26.875;43.55220010630826
15558;BME280;7880;50.110;9.372;2022-07-29T12:48:17;27.25461073537008;;;27.25;42.87685205606399
15558;BME280;7880;50.110;9.372;2022-07-29T12:53:20;26.73515570575837;;;26.75;43.1146838332219
15558;BME280;7880;50.110;9.372;2022-07-29T12:58:29;27.194091543887044;;;27.125;43.36159517495901
15558;BME280;7880;50.110;9.372;2022-07-29T13:03:43;26.422475526109338;;;26.437;44.64175428902223
15558;BME280;7880;50.110;9.372;2022-07-29T13:08:36;26.19048772866372;;;26.125;42.5977578003146
15558;BME280;7880;50.110;9.372;2022-07-29T13:13:50;26.39725943133817;;;26.125;44.74046540007586
15558;BME280;7880;50.110;9.372;2022-07-29T13:18:42;26.523339977953583;;;26.375;41.87906677375376
15558;BME280;7880;50.110;9.372;2022-07-29T13:23:46;26.841063762182603;;;26.625;42.961393698964514
15558;BME280;7880;50.110;9.372;2022-07-29T13:28:57;26.51325352753047;;;26.375;41.856966237508956
15558;BME280;7880;50.110;9.372;2022-07-29T13:34:16;27.00749096730724;;;26.687;41.97603297118356
15558;BME280;7880;50.110;9.372;2022-07-29T13:39:01;27.12348587345914;;;27.0;41.77274086011244
15558;BME280;7880;50.110;9.372;2022-07-29T13:44:04;27.2949568863085;;;27.25;42.46347290947063
15558;BME280;7880;50.110;9.372;2022-07-29T13:49:07;26.679680108377944;;;26.687;43.97882515943973
15558;BME280;7880;50.110;9.372;2022-07-29T13:54:12;26.518296752596505;;;26.437;46.260687223162485
15558;BME280;7880;50.110;9.372;2022-07-29T13:59:21;26.326654404686998;;;26.187;45.619605215543224
15558;BME280;7880;50.110;9.372;2022-07-29T14:03:10;26.59394516351167;;;26.312;44.47332304210006
15558;BME280;7880;50.110;9.372;2022-07-29T14:08:14;26.235876597097377;;;26.125;44.21028750731881
15558;BME280;7880;50.110;9.372;2022-07-29T14:13:18;26.185444522515173;;;26.0;45.05661628304263
15558;BME280;7880;50.110;9.372;2022-07-29T14:18:30;26.175358111091192;;;26.0;44.96299460011618
15558;BME280;7880;50.110;9.372;2022-07-29T14:23:26;26.11483966699452;;;25.875;46.16055699488331
15558;BME280;7880;50.110;9.372;2022-07-29T14:28:30;25.90806863254402;;;25.687;46.9701199609654
15558;BME280;7880;50.110;9.372;2022-07-29T14:33:33;25.741643521148944;;;25.5;47.532522624686706
15558;BME280;7880;50.110;9.372;2022-07-29T14:38:36;25.52983020139509;;;25.312;48.57617865521301
15558;BME280;7880;50.110;9.372;2022-07-29T14:43:39;25.36340581031982;;;25.062;49.06046205405987
15558;BME280;7880;50.110;9.372;2022-07-29T14:48:43;25.171765995025634;;;24.937;50.21208881931637
15558;BME280;7880;50.110;9.372;2022-07-29T14:53:49;24.874220798822353;;;24.625;55.357453906236316
15558;BME280;7880;50.110;9.372;2022-07-29T14:58:56;24.15809922577464;;;23.875;72.36935012096785
15558;BME280;7880;50.110;9.372;2022-07-29T15:04:01;22.433379806351148;;;22.0;82.84501289188997
15558;BME280;7880;50.110;9.372;2022-07-29T15:09:05;21.434873596118997;;;20.875;89.85525291809493
15558;BME280;7880;50.110;9.372;2022-07-29T15:14:11;20.527150578849252;;;20.0;90.66038182136337
15558;BME280;7880;50.110;9.372;2022-07-29T15:19:15;19.821150306897472;;;19.125;91.36801883071955
15558;BME280;7880;50.110;9.372;2022-07-29T15:24:31;20.320392765686847;;;19.375;93.42403214984257
15558;BME280;7880;50.110;9.372;2022-07-29T15:29:27;20.36073571520392;;;19.375;90.81734429169109
15558;BME280;7880;50.110;9.372;2022-07-29T15:34:50;20.350649976078422;;;19.437;84.4764532485055
15558;BME280;7880;50.110;9.372;2022-07-29T15:39:37;20.118678297498263;;;19.312;85.17046656927276
15558;BME280;7880;50.110;9.372;2022-07-29T15:44:43;20.148935438040645;;;19.375;87.54220452283461
15558;BME280;7880;50.110;9.372;2022-07-29T15:49:55;20.15397829581634;;;19.312;90.60543344016511
15558;BME280;7880;50.110;9.372;2022-07-29T15:54:55;19.86653586709872;;;19.125;86.10774539764532
15558;BME280;7880;50.110;9.372;2022-07-29T16:00:03;20.113635441759833;;;19.25;87.96673439068515
15558;BME280;7880;50.110;9.372;2022-07-29T16:05:04;19.982521294715117;;;19.187;88.20357721688032
15558;BME280;7880;50.110;9.372;2022-07-29T16:10:08;19.81106463005417;;;19.125;94.4662972602471
15558;BME280;7880;50.110;9.372;2022-07-29T16:15:12;19.66482244664803;;;19.0;94.60250559330126
15558;BME280;7880;50.110;9.372;2022-07-29T16:20:17;19.56396591104567;;;18.875;93.74605751598975
15558;BME280;7880;50.110;9.372;2022-07-29T16:25:27;19.392510067694822;;;18.687;92.8703255685708
15558;BME280;7880;50.110;9.372;2022-07-29T16:30:28;19.538751795334974;;;18.687;92.16740396426476
15558;BME280;7880;50.110;9.372;2022-07-29T16:35:35;19.750550593441584;;;19.062;94.75765279099299
15558;BME280;7880;50.110;9.372;2022-07-29T16:40:40;19.3067822721845;;;18.75;100.0
15558;BME280;7880;50.110;9.372;2022-07-29T16:45:47;19.53370897306595;;;18.875;96.6348624330342
15558;BME280;7880;50.110;9.372;2022-07-29T16:50:48;19.553880263888278;;;18.875;97.41099448778205
15558;BME280;7880;50.110;9.372;2022-07-29T16:56:03;19.589180034032324;;;18.937;91.43089381371742
15558;BME280;7880;50.110;9.372;2022-07-29T17:01:00;19.402595696225763;;;18.937;92.35898570606584
15558;BME280;7880;50.110;9.372;2022-07-29T17:06:06;19.473195128538645;;;18.812;94.27910671599699
15558;BME280;7880;50.110;9.372;2022-07-29T17:11:12;19.574051559367216;;;18.875;96.46947835661149
15558;BME280;7880;50.110;9.372;2022-07-29T17:16:24;19.51858050800511;;;19.0;97.6249112170779
15558;BME280;7880;50.110;9.372;2022-07-29T17:21:25;19.679950937029208;;;19.062;95.21844148612982
15558;BME280;7880;50.110;9.372;2022-07-29T17:26:30;19.760636263299965;;;19.062;98.79379939375285
15558;BME280;7880;50.110;9.372;2022-07-29T17:31:37;19.33703913158388;;;18.875;98.30936107026506
15558;BME280;7880;50.110;9.372;2022-07-29T17:36:45;19.45302385634277;;;18.812;98.00529853989144
15558;BME280;7880;50.110;9.372;2022-07-29T17:41:52;19.367296001460637;;;18.687;98.96366549740918
15558;BME280;7880;50.110;9.372;2022-07-29T17:46:55;19.2563541964686;;;18.687;97.40304301804619
15558;BME280;7880;50.110;9.372;2022-07-29T17:52:01;19.0243854230328;;;18.437;99.42754866754404
15558;BME280;7880;50.110;9.372;2022-07-29T17:57:05;18.958829142153263;;;18.375;99.35455661942778
15558;BME280;7880;50.110;9.372;2022-07-29T18:02:13;19.53370897306595;;;18.625;96.99226105448065
15558;BME280;7880;50.110;9.372;2022-07-29T18:07:16;19.447981039021396;;;18.812;100.0
15558;BME280;7880;50.110;9.372;2022-07-29T18:12:20;19.427809772646288;;;18.687;100.0
15558;BME280;7880;50.110;9.372;2022-07-29T18:17:25;19.266439809283476;;;18.812;100.0
15558;BME280;7880;50.110;9.372;2022-07-29T18:22:30;19.059684979263693;;;18.625;100.0
15558;BME280;7880;50.110;9.372;2022-07-29T18:27:37;19.115155739296462;;;18.5;99.7862721201563
15558;BME280;7880;50.110;9.372;2022-07-29T18:32:42;19.110112941474654;;;18.375;100.0
15558;BME280;7880;50.110;9.372;2022-07-29T18:37:47;19.069770569377578;;;18.375;100.0
15558;BME280;7880;50.110;9.372;2022-07-29T18:42:52;19.064727774175118;;;18.437;100.0
15558;BME280;7880;50.110;9.372;2022-07-29T18:48:00;19.07481336487108;;;18.437;99.38131224154117
15558;BME280;7880;50.110;9.372;2022-07-29T18:53:03;18.70669005869422;;;18.312;100.0
15558;BME280;7880;50.110;9.372;2022-07-29T18:58:09;18.721818383183564;;;18.187;100.0
15558;BME280;7880;50.110;9.372;2022-07-29T19:03:16;18.74198948657722;;;18.187;100.0
15558;BME280;7880;50.110;9.372;2022-07-29T19:07:26;18.711732833232965;;;18.125;100.0
15558;BME280;7880;50.110;9.372;2022-07-29T19:12:58;18.55540695786476;;;18.062;100.0
15558;BME280;7880;50.110;9.372;2022-07-29T19:18:01;18.469679983664538;;;17.937;100.0
15558;BME280;7880;50.110;9.372;2022-07-29T19:23:05;18.36882482758374;;;17.812;100.0
15558;BME280;7880;50.110;9.372;2022-07-29T19:28:14;18.42429514902178;;;17.937;100.0
15558;BME280;7880;50.110;9.372;2022-07-29T19:33:19;18.661305100942265;;;18.062;100.0
15558;BME280;7880;50.110;9.372;2022-07-29T19:38:19;18.439423424616688;;;18.0;100.0
15558;BME280;7880;50.110;9.372;2022-07-29T19:43:22;18.44950894313515;;;17.937;100.0
15558;BME280;7880;50.110;9.372;2022-07-29T19:48:26;18.3637820728356;;;17.875;100.0
15558;BME280;7880;50.110;9.372;2022-07-29T19:53:29;18.469679983664538;;;17.937;99.93523990226657
15558;BME280;7880;50.110;9.372;2022-07-29T19:58:35;18.338568303460487;;;17.812;100.0
15558;BME280;7880;50.110;9.372;2022-07-29T20:03:39;18.474722744524477;;;17.875;99.93063203604943
15558;BME280;7880;50.110;9.372;2022-07-29T20:08:44;18.36882482758374;;;17.812;100.0
15558;BME280;7880;50.110;9.372;2022-07-29T20:13:48;18.338568303460487;;;17.812;100.0
15558;BME280;7880;50.110;9.372;2022-07-29T20:18:55;18.15702937874594;;;17.625;100.0
15558;BME280;7880;50.110;9.372;2022-07-29T20:24:10;18.273012537136673;;;17.687;100.0
15558;BME280;7880;50.110;9.372;2022-07-29T20:29:04;18.182243095734158;;;17.687;100.0
15558;BME280;7880;50.110;9.372;2022-07-29T20:34:09;17.78386721802526;;;17.437;100.0
15558;BME280;7880;50.110;9.372;2022-07-29T20:39:13;17.71831186788622;;;17.25;100.0
15558;BME280;7880;50.110;9.372;2022-07-29T20:44:23;17.68805556902662;;;17.187;100.0
15558;BME280;7880;50.110;9.372;2022-07-29T20:49:26;17.819166273088193;;;17.187;100.0
15558;BME280;7880;50.110;9.372;2022-07-29T20:54:27;17.798995382734574;;;17.125;100.0
15558;BME280;7880;50.110;9.372;2022-07-29T20:59:38;17.829251720011236;;;17.187;100.0
15558;BME280;7880;50.110;9.372;2022-07-29T21:04:37;17.556945061706937;;;17.125;100.0
15558;BME280;7880;50.110;9.372;2022-07-29T21:09:42;17.622500290774042;;;17.062;100.0